sensor_id;sensor_type;location;lat;lon;timestamp;P1;durP1;ratioP1;P2;durP2;ratioP2
21675;SDS011;10999;51.332;9.458;2022-11-15T00:00:55;7.93;;;3.35;;
21675;SDS011;10999;51.332;9.458;2022-11-15T00:03:26;9.38;;;3.88;;
21675;SDS011;10999;51.332;9.458;2022-11-15T00:05:53;8.18;;;3.72;;
21675;SDS011;10999;51.332;9.458;2022-11-15T00:08:20;8.25;;;3.08;;
21675;SDS011;10999;51.332;9.458;2022-11-15T00:10:54;10.77;;;4.28;;
21675;SDS011;10999;51.332;9.458;2022-11-15T00:13:21;8.45;;;3.47;;
21675;SDS011;10999;51.332;9.458;2022-11-15T00:15:48;7.47;;;3.15;;
21675;SDS011;10999;51.332;9.458;2022-11-15T00:18:15;8.07;;;3.42;;
21675;SDS011;10999;51.332;9.458;2022-11-15T00:20:42;8.48;;;3.47;;
21675;SDS011;10999;51.332;9.458;2022-11-15T00:23:09;11.10;;;3.35;;
21675;SDS011;10999;51.332;9.458;2022-11-15T00:25:36;11.75;;;3.72;;
21675;SDS011;10999;51.332;9.458;2022-11-15T00:28:03;10.95;;;3.40;;
21675;SDS011;10999;51.332;9.458;2022-11-15T00:30:30;9.05;;;3.72;;
21675;SDS011;10999;51.332;9.458;2022-11-15T00:33:00;9.00;;;3.17;;
21675;SDS011;10999;51.332;9.458;2022-11-15T00:35:28;7.70;;;3.30;;
21675;SDS011;10999;51.332;9.458;2022-11-15T00:37:57;9.20;;;4.03;;
21675;SDS011;10999;51.332;9.458;2022-11-15T00:40:23;8.32;;;3.47;;
21675;SDS011;10999;51.332;9.458;2022-11-15T00:42:50;9.35;;;3.58;;
21675;SDS011;10999;51.332;9.458;2022-11-15T00:45:16;8.18;;;3.45;;
21675;SDS011;10999;51.332;9.458;2022-11-15T00:47:44;9.07;;;3.33;;
21675;SDS011;10999;51.332;9.458;2022-11-15T00:50:12;13.35;;;4.20;;
21675;SDS011;10999;51.332;9.458;2022-11-15T00:52:40;7.85;;;3.20;;
21675;SDS011;10999;51.332;9.458;2022-11-15T00:55:08;7.70;;;3.53;;
21675;SDS011;10999;51.332;9.458;2022-11-15T00:57:40;10.40;;;3.65;;
21675;SDS011;10999;51.332;9.458;2022-11-15T01:00:07;8.27;;;3.78;;
21675;SDS011;10999;51.332;9.458;2022-11-15T01:02:34;9.95;;;3.40;;
21675;SDS011;10999;51.332;9.458;2022-11-15T01:05:01;9.25;;;3.75;;
21675;SDS011;10999;51.332;9.458;2022-11-15T01:07:28;8.48;;;3.53;;
21675;SDS011;10999;51.332;9.458;2022-11-15T01:09:54;7.97;;;3.65;;
21675;SDS011;10999;51.332;9.458;2022-11-15T01:12:21;8.35;;;3.42;;
21675;SDS011;10999;51.332;9.458;2022-11-15T01:14:49;10.18;;;3.40;;
21675;SDS011;10999;51.332;9.458;2022-11-15T01:17:15;7.10;;;3.00;;
21675;SDS011;10999;51.332;9.458;2022-11-15T01:19:42;7.47;;;3.65;;
21675;SDS011;10999;51.332;9.458;2022-11-15T01:22:08;9.95;;;3.25;;
21675;SDS011;10999;51.332;9.458;2022-11-15T01:24:35;7.60;;;2.70;;
21675;SDS011;10999;51.332;9.458;2022-11-15T01:27:02;8.70;;;3.88;;
21675;SDS011;10999;51.332;9.458;2022-11-15T01:29:28;8.55;;;3.10;;
21675;SDS011;10999;51.332;9.458;2022-11-15T01:31:55;8.20;;;3.35;;
21675;SDS011;10999;51.332;9.458;2022-11-15T01:34:22;8.55;;;3.53;;
21675;SDS011;10999;51.332;9.458;2022-11-15T01:36:48;7.57;;;3.25;;
21675;SDS011;10999;51.332;9.458;2022-11-15T01:39:15;8.32;;;3.05;;
21675;SDS011;10999;51.332;9.458;2022-11-15T01:41:42;6.43;;;3.17;;
21675;SDS011;10999;51.332;9.458;2022-11-15T01:47:20;8.00;;;3.00;;
21675;SDS011;10999;51.332;9.458;2022-11-15T01:49:57;11.23;;;3.67;;
21675;SDS011;10999;51.332;9.458;2022-11-15T01:52:32;8.98;;;3.45;;
21675;SDS011;10999;51.332;9.458;2022-11-15T01:55:05;7.30;;;3.30;;
21675;SDS011;10999;51.332;9.458;2022-11-15T01:57:37;8.25;;;3.30;;
21675;SDS011;10999;51.332;9.458;2022-11-15T02:00:06;9.55;;;3.58;;
21675;SDS011;10999;51.332;9.458;2022-11-15T02:02:33;17.23;;;3.88;;
21675;SDS011;10999;51.332;9.458;2022-11-15T02:05:02;9.40;;;3.53;;
21675;SDS011;10999;51.332;9.458;2022-11-15T02:07:29;7.30;;;2.83;;
21675;SDS011;10999;51.332;9.458;2022-11-15T02:09:58;7.97;;;3.03;;
21675;SDS011;10999;51.332;9.458;2022-11-15T02:12:32;6.43;;;3.10;;
21675;SDS011;10999;51.332;9.458;2022-11-15T02:14:59;9.13;;;3.40;;
21675;SDS011;10999;51.332;9.458;2022-11-15T02:17:43;8.07;;;3.30;;
21675;SDS011;10999;51.332;9.458;2022-11-15T02:20:34;6.95;;;3.03;;
21675;SDS011;10999;51.332;9.458;2022-11-15T02:29:01;7.47;;;2.67;;
21675;SDS011;10999;51.332;9.458;2022-11-15T02:31:49;10.27;;;4.10;;
21675;SDS011;10999;51.332;9.458;2022-11-15T02:34:28;7.53;;;2.97;;
21675;SDS011;10999;51.332;9.458;2022-11-15T02:42:45;7.93;;;3.60;;
21675;SDS011;10999;51.332;9.458;2022-11-15T02:46:22;10.18;;;3.50;;
21675;SDS011;10999;51.332;9.458;2022-11-15T02:48:41;7.30;;;3.58;;
21675;SDS011;10999;51.332;9.458;2022-11-15T02:51:09;9.57;;;3.65;;
21675;SDS011;10999;51.332;9.458;2022-11-15T02:53:36;8.82;;;4.05;;
21675;SDS011;10999;51.332;9.458;2022-11-15T02:56:03;7.85;;;3.45;;
21675;SDS011;10999;51.332;9.458;2022-11-15T03:06:57;11.75;;;4.15;;
21675;SDS011;10999;51.332;9.458;2022-11-15T03:09:34;10.05;;;4.10;;
21675;SDS011;10999;51.332;9.458;2022-11-15T03:12:08;8.82;;;3.72;;
21675;SDS011;10999;51.332;9.458;2022-11-15T03:15:05;7.47;;;3.25;;
21675;SDS011;10999;51.332;9.458;2022-11-15T03:17:36;9.10;;;3.92;;
21675;SDS011;10999;51.332;9.458;2022-11-15T03:20:17;10.80;;;3.97;;
21675;SDS011;10999;51.332;9.458;2022-11-15T03:22:45;6.50;;;2.95;;
21675;SDS011;10999;51.332;9.458;2022-11-15T03:25:16;8.15;;;3.80;;
21675;SDS011;10999;51.332;9.458;2022-11-15T03:27:48;9.20;;;3.55;;
21675;SDS011;10999;51.332;9.458;2022-11-15T03:30:21;9.10;;;3.08;;
21675;SDS011;10999;51.332;9.458;2022-11-15T03:32:52;9.50;;;3.50;;
21675;SDS011;10999;51.332;9.458;2022-11-15T03:35:23;7.93;;;3.13;;
21675;SDS011;10999;51.332;9.458;2022-11-15T03:37:55;9.35;;;2.92;;
21675;SDS011;10999;51.332;9.458;2022-11-15T03:40:41;7.03;;;3.03;;
21675;SDS011;10999;51.332;9.458;2022-11-15T03:45:47;7.63;;;3.00;;
21675;SDS011;10999;51.332;9.458;2022-11-15T03:48:20;9.30;;;3.25;;
21675;SDS011;10999;51.332;9.458;2022-11-15T03:50:50;8.48;;;3.15;;
21675;SDS011;10999;51.332;9.458;2022-11-15T03:53:17;9.40;;;3.47;;
21675;SDS011;10999;51.332;9.458;2022-11-15T03:55:44;8.25;;;3.13;;
21675;SDS011;10999;51.332;9.458;2022-11-15T03:58:10;6.28;;;3.30;;
21675;SDS011;10999;51.332;9.458;2022-11-15T04:00:38;9.55;;;3.42;;
21675;SDS011;10999;51.332;9.458;2022-11-15T04:03:05;6.88;;;2.78;;
21675;SDS011;10999;51.332;9.458;2022-11-15T04:05:31;7.10;;;2.88;;
21675;SDS011;10999;51.332;9.458;2022-11-15T04:07:58;6.97;;;2.88;;
21675;SDS011;10999;51.332;9.458;2022-11-15T04:10:25;6.30;;;2.70;;
21675;SDS011;10999;51.332;9.458;2022-11-15T04:12:51;5.97;;;2.60;;
21675;SDS011;10999;51.332;9.458;2022-11-15T04:15:19;7.22;;;2.88;;
21675;SDS011;10999;51.332;9.458;2022-11-15T04:17:49;9.27;;;3.00;;
21675;SDS011;10999;51.332;9.458;2022-11-15T04:20:18;7.03;;;2.70;;
21675;SDS011;10999;51.332;9.458;2022-11-15T04:23:06;7.07;;;2.90;;
21675;SDS011;10999;51.332;9.458;2022-11-15T04:25:55;7.40;;;3.05;;
21675;SDS011;10999;51.332;9.458;2022-11-15T04:28:24;5.85;;;2.25;;
21675;SDS011;10999;51.332;9.458;2022-11-15T04:30:51;6.03;;;2.53;;
21675;SDS011;10999;51.332;9.458;2022-11-15T04:33:18;7.35;;;2.90;;
21675;SDS011;10999;51.332;9.458;2022-11-15T04:35:45;7.00;;;2.50;;
21675;SDS011;10999;51.332;9.458;2022-11-15T04:38:31;8.18;;;3.63;;
21675;SDS011;10999;51.332;9.458;2022-11-15T04:40:58;6.63;;;2.65;;
21675;SDS011;10999;51.332;9.458;2022-11-15T04:43:25;6.47;;;2.45;;
21675;SDS011;10999;51.332;9.458;2022-11-15T04:45:52;7.25;;;2.85;;
21675;SDS011;10999;51.332;9.458;2022-11-15T04:48:18;7.38;;;3.33;;
21675;SDS011;10999;51.332;9.458;2022-11-15T04:50:47;7.88;;;3.20;;
21675;SDS011;10999;51.332;9.458;2022-11-15T04:53:14;5.70;;;2.55;;
21675;SDS011;10999;51.332;9.458;2022-11-15T04:55:43;7.13;;;2.80;;
21675;SDS011;10999;51.332;9.458;2022-11-15T04:58:11;9.60;;;3.38;;
21675;SDS011;10999;51.332;9.458;2022-11-15T05:00:38;7.82;;;3.05;;
21675;SDS011;10999;51.332;9.458;2022-11-15T05:03:05;7.50;;;2.78;;
21675;SDS011;10999;51.332;9.458;2022-11-15T05:05:51;9.07;;;3.00;;
21675;SDS011;10999;51.332;9.458;2022-11-15T05:08:17;6.90;;;2.55;;
21675;SDS011;10999;51.332;9.458;2022-11-15T05:10:44;8.05;;;2.70;;
21675;SDS011;10999;51.332;9.458;2022-11-15T05:13:11;8.55;;;3.30;;
21675;SDS011;10999;51.332;9.458;2022-11-15T05:15:37;7.03;;;2.92;;
21675;SDS011;10999;51.332;9.458;2022-11-15T05:18:04;8.18;;;2.90;;
21675;SDS011;10999;51.332;9.458;2022-11-15T05:20:31;8.43;;;3.38;;
21675;SDS011;10999;51.332;9.458;2022-11-15T05:22:58;8.95;;;2.28;;
21675;SDS011;10999;51.332;9.458;2022-11-15T05:25:24;6.47;;;2.80;;
21675;SDS011;10999;51.332;9.458;2022-11-15T05:27:51;7.00;;;2.97;;
21675;SDS011;10999;51.332;9.458;2022-11-15T05:30:18;8.63;;;2.70;;
21675;SDS011;10999;51.332;9.458;2022-11-15T05:32:45;8.68;;;2.78;;
21675;SDS011;10999;51.332;9.458;2022-11-15T05:35:12;7.15;;;2.83;;
21675;SDS011;10999;51.332;9.458;2022-11-15T05:37:46;10.13;;;3.13;;
21675;SDS011;10999;51.332;9.458;2022-11-15T05:40:12;7.45;;;3.03;;
21675;SDS011;10999;51.332;9.458;2022-11-15T05:42:39;6.63;;;2.58;;
21675;SDS011;10999;51.332;9.458;2022-11-15T05:45:06;6.93;;;3.20;;
21675;SDS011;10999;51.332;9.458;2022-11-15T05:47:35;9.48;;;3.40;;
21675;SDS011;10999;51.332;9.458;2022-11-15T05:50:04;6.82;;;2.55;;
21675;SDS011;10999;51.332;9.458;2022-11-15T05:52:33;7.18;;;2.38;;
21675;SDS011;10999;51.332;9.458;2022-11-15T05:55:03;9.90;;;2.78;;
21675;SDS011;10999;51.332;9.458;2022-11-15T05:57:31;8.30;;;2.53;;
21675;SDS011;10999;51.332;9.458;2022-11-15T05:59:58;6.78;;;2.92;;
21675;SDS011;10999;51.332;9.458;2022-11-15T06:02:24;6.72;;;2.55;;
21675;SDS011;10999;51.332;9.458;2022-11-15T06:04:51;7.10;;;3.00;;
21675;SDS011;10999;51.332;9.458;2022-11-15T06:07:18;7.22;;;2.55;;
21675;SDS011;10999;51.332;9.458;2022-11-15T06:09:44;6.40;;;2.35;;
21675;SDS011;10999;51.332;9.458;2022-11-15T06:12:11;9.20;;;2.63;;
21675;SDS011;10999;51.332;9.458;2022-11-15T06:14:38;6.88;;;2.60;;
21675;SDS011;10999;51.332;9.458;2022-11-15T06:17:04;7.72;;;2.63;;
21675;SDS011;10999;51.332;9.458;2022-11-15T06:19:36;6.78;;;2.72;;
21675;SDS011;10999;51.332;9.458;2022-11-15T06:22:03;7.35;;;2.67;;
21675;SDS011;10999;51.332;9.458;2022-11-15T06:24:29;7.28;;;2.53;;
21675;SDS011;10999;51.332;9.458;2022-11-15T06:26:56;7.60;;;2.83;;
21675;SDS011;10999;51.332;9.458;2022-11-15T06:29:23;5.88;;;2.72;;
21675;SDS011;10999;51.332;9.458;2022-11-15T06:31:50;7.75;;;3.00;;
21675;SDS011;10999;51.332;9.458;2022-11-15T06:34:16;7.57;;;2.85;;
21675;SDS011;10999;51.332;9.458;2022-11-15T06:36:43;7.10;;;2.83;;
21675;SDS011;10999;51.332;9.458;2022-11-15T06:39:10;6.70;;;2.78;;
21675;SDS011;10999;51.332;9.458;2022-11-15T06:41:36;7.40;;;2.70;;
21675;SDS011;10999;51.332;9.458;2022-11-15T06:44:03;8.40;;;3.25;;
21675;SDS011;10999;51.332;9.458;2022-11-15T06:46:29;7.35;;;2.83;;
21675;SDS011;10999;51.332;9.458;2022-11-15T06:48:56;8.13;;;2.83;;
21675;SDS011;10999;51.332;9.458;2022-11-15T06:51:23;9.55;;;2.72;;
21675;SDS011;10999;51.332;9.458;2022-11-15T06:53:49;8.13;;;2.67;;
21675;SDS011;10999;51.332;9.458;2022-11-15T06:56:16;8.77;;;2.63;;
21675;SDS011;10999;51.332;9.458;2022-11-15T06:58:43;9.18;;;3.35;;
21675;SDS011;10999;51.332;9.458;2022-11-15T07:01:10;8.20;;;2.83;;
21675;SDS011;10999;51.332;9.458;2022-11-15T07:03:40;6.72;;;2.58;;
21675;SDS011;10999;51.332;9.458;2022-11-15T07:06:08;8.13;;;3.50;;
21675;SDS011;10999;51.332;9.458;2022-11-15T07:08:35;8.02;;;3.30;;
21675;SDS011;10999;51.332;9.458;2022-11-15T07:11:04;9.13;;;3.63;;
21675;SDS011;10999;51.332;9.458;2022-11-15T07:13:32;9.35;;;3.30;;
21675;SDS011;10999;51.332;9.458;2022-11-15T07:16:04;9.73;;;3.03;;
21675;SDS011;10999;51.332;9.458;2022-11-15T07:18:35;7.93;;;2.90;;
21675;SDS011;10999;51.332;9.458;2022-11-15T07:21:04;8.88;;;3.58;;
21675;SDS011;10999;51.332;9.458;2022-11-15T07:23:36;8.73;;;3.03;;
21675;SDS011;10999;51.332;9.458;2022-11-15T07:26:04;8.85;;;3.50;;
21675;SDS011;10999;51.332;9.458;2022-11-15T07:28:31;9.00;;;2.95;;
21675;SDS011;10999;51.332;9.458;2022-11-15T07:31:01;11.15;;;2.97;;
21675;SDS011;10999;51.332;9.458;2022-11-15T07:33:32;10.63;;;3.63;;
21675;SDS011;10999;51.332;9.458;2022-11-15T07:36:04;10.32;;;3.38;;
21675;SDS011;10999;51.332;9.458;2022-11-15T07:38:32;9.85;;;3.17;;
21675;SDS011;10999;51.332;9.458;2022-11-15T07:41:07;8.38;;;3.08;;
21675;SDS011;10999;51.332;9.458;2022-11-15T07:43:34;10.23;;;3.92;;
21675;SDS011;10999;51.332;9.458;2022-11-15T07:46:05;8.05;;;3.15;;
21675;SDS011;10999;51.332;9.458;2022-11-15T07:48:35;9.57;;;3.13;;
21675;SDS011;10999;51.332;9.458;2022-11-15T07:51:10;8.77;;;3.15;;
21675;SDS011;10999;51.332;9.458;2022-11-15T07:53:40;8.90;;;2.92;;
21675;SDS011;10999;51.332;9.458;2022-11-15T07:56:07;8.13;;;3.15;;
21675;SDS011;10999;51.332;9.458;2022-11-15T07:58:34;9.90;;;2.88;;
21675;SDS011;10999;51.332;9.458;2022-11-15T08:01:04;9.63;;;3.75;;
21675;SDS011;10999;51.332;9.458;2022-11-15T08:03:31;7.85;;;3.00;;
21675;SDS011;10999;51.332;9.458;2022-11-15T08:05:59;9.65;;;3.55;;
21675;SDS011;10999;51.332;9.458;2022-11-15T08:08:26;10.00;;;3.60;;
21675;SDS011;10999;51.332;9.458;2022-11-15T08:10:53;7.80;;;3.22;;
21675;SDS011;10999;51.332;9.458;2022-11-15T08:13:20;8.75;;;3.63;;
21675;SDS011;10999;51.332;9.458;2022-11-15T08:15:47;6.45;;;3.00;;
21675;SDS011;10999;51.332;9.458;2022-11-15T08:18:21;7.53;;;2.90;;
21675;SDS011;10999;51.332;9.458;2022-11-15T08:20:48;8.43;;;3.10;;
21675;SDS011;10999;51.332;9.458;2022-11-15T08:23:14;8.15;;;3.45;;
21675;SDS011;10999;51.332;9.458;2022-11-15T08:25:41;7.75;;;3.10;;
21675;SDS011;10999;51.332;9.458;2022-11-15T08:28:08;6.93;;;2.80;;
21675;SDS011;10999;51.332;9.458;2022-11-15T08:30:37;7.85;;;3.25;;
21675;SDS011;10999;51.332;9.458;2022-11-15T08:33:10;7.47;;;3.10;;
21675;SDS011;10999;51.332;9.458;2022-11-15T08:35:39;9.77;;;3.35;;
21675;SDS011;10999;51.332;9.458;2022-11-15T08:38:06;7.95;;;2.70;;
21675;SDS011;10999;51.332;9.458;2022-11-15T08:40:33;8.23;;;3.60;;
21675;SDS011;10999;51.332;9.458;2022-11-15T08:43:00;8.30;;;3.25;;
21675;SDS011;10999;51.332;9.458;2022-11-15T08:45:29;8.88;;;3.35;;
21675;SDS011;10999;51.332;9.458;2022-11-15T08:47:56;7.40;;;2.95;;
21675;SDS011;10999;51.332;9.458;2022-11-15T08:50:23;6.40;;;2.67;;
21675;SDS011;10999;51.332;9.458;2022-11-15T08:52:50;6.60;;;3.00;;
21675;SDS011;10999;51.332;9.458;2022-11-15T08:55:16;9.98;;;3.28;;
21675;SDS011;10999;51.332;9.458;2022-11-15T08:57:43;7.03;;;2.60;;
21675;SDS011;10999;51.332;9.458;2022-11-15T09:00:10;7.50;;;2.58;;
21675;SDS011;10999;51.332;9.458;2022-11-15T09:02:38;8.15;;;2.70;;
21675;SDS011;10999;51.332;9.458;2022-11-15T09:05:06;6.82;;;2.70;;
21675;SDS011;10999;51.332;9.458;2022-11-15T09:07:33;7.60;;;2.67;;
21675;SDS011;10999;51.332;9.458;2022-11-15T09:10:00;7.05;;;2.17;;
21675;SDS011;10999;51.332;9.458;2022-11-15T09:12:27;8.55;;;3.00;;
21675;SDS011;10999;51.332;9.458;2022-11-15T09:14:53;6.60;;;2.70;;
21675;SDS011;10999;51.332;9.458;2022-11-15T09:17:20;6.07;;;2.55;;
21675;SDS011;10999;51.332;9.458;2022-11-15T09:19:50;5.90;;;2.60;;
21675;SDS011;10999;51.332;9.458;2022-11-15T09:22:17;5.50;;;2.40;;
21675;SDS011;10999;51.332;9.458;2022-11-15T09:24:43;6.15;;;2.60;;
21675;SDS011;10999;51.332;9.458;2022-11-15T09:27:10;7.18;;;2.80;;
21675;SDS011;10999;51.332;9.458;2022-11-15T09:29:38;7.57;;;2.60;;
21675;SDS011;10999;51.332;9.458;2022-11-15T09:32:04;8.13;;;2.67;;
21675;SDS011;10999;51.332;9.458;2022-11-15T09:34:31;5.72;;;2.53;;
21675;SDS011;10999;51.332;9.458;2022-11-15T09:36:58;6.40;;;2.40;;
21675;SDS011;10999;51.332;9.458;2022-11-15T09:39:25;7.55;;;2.50;;
21675;SDS011;10999;51.332;9.458;2022-11-15T09:42:00;8.15;;;3.13;;
21675;SDS011;10999;51.332;9.458;2022-11-15T09:49:59;6.07;;;2.80;;
21675;SDS011;10999;51.332;9.458;2022-11-15T09:52:27;9.13;;;2.70;;
21675;SDS011;10999;51.332;9.458;2022-11-15T09:54:54;8.77;;;3.00;;
21675;SDS011;10999;51.332;9.458;2022-11-15T09:57:30;10.30;;;3.00;;
21675;SDS011;10999;51.332;9.458;2022-11-15T10:05:41;7.70;;;2.90;;
21675;SDS011;10999;51.332;9.458;2022-11-15T10:10:42;8.43;;;3.08;;
21675;SDS011;10999;51.332;9.458;2022-11-15T10:13:13;7.80;;;2.75;;
21675;SDS011;10999;51.332;9.458;2022-11-15T10:15:48;9.32;;;3.00;;
21675;SDS011;10999;51.332;9.458;2022-11-15T10:18:17;7.85;;;2.85;;
21675;SDS011;10999;51.332;9.458;2022-11-15T10:21:02;6.90;;;2.97;;
21675;SDS011;10999;51.332;9.458;2022-11-15T10:23:44;7.38;;;2.63;;
21675;SDS011;10999;51.332;9.458;2022-11-15T10:26:12;9.93;;;3.13;;
21675;SDS011;10999;51.332;9.458;2022-11-15T10:28:41;8.05;;;3.22;;
21675;SDS011;10999;51.332;9.458;2022-11-15T10:31:24;8.88;;;3.20;;
21675;SDS011;10999;51.332;9.458;2022-11-15T10:33:59;8.00;;;2.95;;
21675;SDS011;10999;51.332;9.458;2022-11-15T10:36:38;7.35;;;3.05;;
21675;SDS011;10999;51.332;9.458;2022-11-15T10:39:15;7.93;;;2.78;;
21675;SDS011;10999;51.332;9.458;2022-11-15T10:41:42;8.20;;;3.40;;
21675;SDS011;10999;51.332;9.458;2022-11-15T10:44:25;9.82;;;3.20;;
21675;SDS011;10999;51.332;9.458;2022-11-15T10:49:25;8.70;;;2.78;;
21675;SDS011;10999;51.332;9.458;2022-11-15T10:52:02;8.07;;;2.90;;
21675;SDS011;10999;51.332;9.458;2022-11-15T10:57:04;7.25;;;3.10;;
21675;SDS011;10999;51.332;9.458;2022-11-15T10:59:35;7.85;;;2.60;;
21675;SDS011;10999;51.332;9.458;2022-11-15T11:04:51;6.18;;;2.53;;
21675;SDS011;10999;51.332;9.458;2022-11-15T11:07:26;7.78;;;3.00;;
21675;SDS011;10999;51.332;9.458;2022-11-15T11:09:59;6.18;;;2.65;;
21675;SDS011;10999;51.332;9.458;2022-11-15T11:12:48;5.43;;;2.22;;
21675;SDS011;10999;51.332;9.458;2022-11-15T11:15:15;7.55;;;2.53;;
21675;SDS011;10999;51.332;9.458;2022-11-15T11:20:38;7.40;;;2.17;;
21675;SDS011;10999;51.332;9.458;2022-11-15T11:23:32;4.70;;;2.22;;
21675;SDS011;10999;51.332;9.458;2022-11-15T11:26:24;6.38;;;2.25;;
21675;SDS011;10999;51.332;9.458;2022-11-15T11:32:22;7.32;;;2.30;;
21675;SDS011;10999;51.332;9.458;2022-11-15T11:46:25;5.50;;;1.60;;
21675;SDS011;10999;51.332;9.458;2022-11-15T11:51:34;5.55;;;2.10;;
21675;SDS011;10999;51.332;9.458;2022-11-15T11:57:09;6.60;;;2.10;;
21675;SDS011;10999;51.332;9.458;2022-11-15T11:59:43;4.32;;;1.77;;
21675;SDS011;10999;51.332;9.458;2022-11-15T12:04:53;4.60;;;1.30;;
21675;SDS011;10999;51.332;9.458;2022-11-15T12:07:31;4.53;;;1.77;;
21675;SDS011;10999;51.332;9.458;2022-11-15T12:12:55;5.00;;;1.67;;
21675;SDS011;10999;51.332;9.458;2022-11-15T12:15:29;5.05;;;1.90;;
21675;SDS011;10999;51.332;9.458;2022-11-15T12:18:00;4.57;;;1.77;;
21675;SDS011;10999;51.332;9.458;2022-11-15T12:20:28;3.67;;;1.70;;
21675;SDS011;10999;51.332;9.458;2022-11-15T12:28:43;4.78;;;1.88;;
21675;SDS011;10999;51.332;9.458;2022-11-15T12:36:48;6.32;;;1.50;;
21675;SDS011;10999;51.332;9.458;2022-11-15T12:39:17;3.45;;;1.52;;
21675;SDS011;10999;51.332;9.458;2022-11-15T12:42:34;3.67;;;1.52;;
21675;SDS011;10999;51.332;9.458;2022-11-15T13:02:24;4.07;;;1.50;;
21675;SDS011;10999;51.332;9.458;2022-11-15T13:04:55;3.50;;;1.45;;
21675;SDS011;10999;51.332;9.458;2022-11-15T13:22:46;5.45;;;1.73;;
21675;SDS011;10999;51.332;9.458;2022-11-15T13:38:35;5.97;;;2.03;;
21675;SDS011;10999;51.332;9.458;2022-11-15T13:41:20;5.38;;;1.77;;
21675;SDS011;10999;51.332;9.458;2022-11-15T13:43:49;7.30;;;2.05;;
21675;SDS011;10999;51.332;9.458;2022-11-15T13:46:24;5.10;;;2.15;;
21675;SDS011;10999;51.332;9.458;2022-11-15T13:48:57;8.13;;;2.42;;
21675;SDS011;10999;51.332;9.458;2022-11-15T13:56:52;6.63;;;2.40;;
21675;SDS011;10999;51.332;9.458;2022-11-15T13:59:25;6.95;;;2.63;;
21675;SDS011;10999;51.332;9.458;2022-11-15T14:01:56;5.55;;;1.92;;
21675;SDS011;10999;51.332;9.458;2022-11-15T14:04:27;5.15;;;1.95;;
21675;SDS011;10999;51.332;9.458;2022-11-15T14:06:56;5.05;;;2.00;;
21675;SDS011;10999;51.332;9.458;2022-11-15T14:09:35;4.25;;;1.80;;
21675;SDS011;10999;51.332;9.458;2022-11-15T14:15:51;5.15;;;1.70;;
21675;SDS011;10999;51.332;9.458;2022-11-15T14:18:00;5.80;;;1.67;;
21675;SDS011;10999;51.332;9.458;2022-11-15T14:23:02;5.13;;;1.80;;
21675;SDS011;10999;51.332;9.458;2022-11-15T14:25:57;6.75;;;1.98;;
21675;SDS011;10999;51.332;9.458;2022-11-15T14:30:53;5.53;;;1.88;;
21675;SDS011;10999;51.332;9.458;2022-11-15T14:35:55;8.05;;;2.22;;
21675;SDS011;10999;51.332;9.458;2022-11-15T14:38:24;8.82;;;3.30;;
21675;SDS011;10999;51.332;9.458;2022-11-15T14:40:51;5.47;;;2.03;;
21675;SDS011;10999;51.332;9.458;2022-11-15T14:43:20;5.88;;;2.08;;
21675;SDS011;10999;51.332;9.458;2022-11-15T14:45:46;9.45;;;2.53;;
21675;SDS011;10999;51.332;9.458;2022-11-15T14:48:13;7.45;;;2.83;;
21675;SDS011;10999;51.332;9.458;2022-11-15T14:50:40;6.05;;;2.35;;
21675;SDS011;10999;51.332;9.458;2022-11-15T14:53:10;5.10;;;1.83;;
21675;SDS011;10999;51.332;9.458;2022-11-15T14:55:39;5.80;;;2.15;;
21675;SDS011;10999;51.332;9.458;2022-11-15T14:58:06;8.30;;;3.20;;
21675;SDS011;10999;51.332;9.458;2022-11-15T15:00:37;5.78;;;2.15;;
21675;SDS011;10999;51.332;9.458;2022-11-15T15:03:05;6.53;;;2.00;;
21675;SDS011;10999;51.332;9.458;2022-11-15T15:08:04;7.07;;;2.80;;
21675;SDS011;10999;51.332;9.458;2022-11-15T15:10:35;6.50;;;2.25;;
21675;SDS011;10999;51.332;9.458;2022-11-15T15:13:08;5.25;;;2.35;;
21675;SDS011;10999;51.332;9.458;2022-11-15T15:15:45;6.70;;;2.83;;
21675;SDS011;10999;51.332;9.458;2022-11-15T15:18:12;6.03;;;2.50;;
21675;SDS011;10999;51.332;9.458;2022-11-15T15:20:39;5.43;;;2.05;;
21675;SDS011;10999;51.332;9.458;2022-11-15T15:23:20;6.32;;;2.38;;
21675;SDS011;10999;51.332;9.458;2022-11-15T15:25:49;6.63;;;2.20;;
21675;SDS011;10999;51.332;9.458;2022-11-15T15:28:15;7.03;;;2.30;;
21675;SDS011;10999;51.332;9.458;2022-11-15T15:30:42;6.72;;;2.10;;
21675;SDS011;10999;51.332;9.458;2022-11-15T15:33:09;6.68;;;2.67;;
21675;SDS011;10999;51.332;9.458;2022-11-15T15:35:35;6.50;;;2.60;;
21675;SDS011;10999;51.332;9.458;2022-11-15T15:38:02;9.15;;;3.00;;
21675;SDS011;10999;51.332;9.458;2022-11-15T15:40:29;7.15;;;2.78;;
21675;SDS011;10999;51.332;9.458;2022-11-15T15:42:58;8.95;;;3.40;;
21675;SDS011;10999;51.332;9.458;2022-11-15T15:45:25;7.45;;;2.80;;
21675;SDS011;10999;51.332;9.458;2022-11-15T15:47:53;8.93;;;3.63;;
21675;SDS011;10999;51.332;9.458;2022-11-15T15:52:51;8.98;;;3.75;;
21675;SDS011;10999;51.332;9.458;2022-11-15T15:55:19;10.23;;;3.85;;
21675;SDS011;10999;51.332;9.458;2022-11-15T15:57:47;7.40;;;3.25;;
21675;SDS011;10999;51.332;9.458;2022-11-15T16:00:14;9.82;;;4.30;;
21675;SDS011;10999;51.332;9.458;2022-11-15T16:02:42;9.60;;;4.00;;
21675;SDS011;10999;51.332;9.458;2022-11-15T16:05:09;7.90;;;3.42;;
21675;SDS011;10999;51.332;9.458;2022-11-15T16:07:37;9.60;;;3.40;;
21675;SDS011;10999;51.332;9.458;2022-11-15T16:10:48;8.15;;;3.72;;
21675;SDS011;10999;51.332;9.458;2022-11-15T16:12:57;9.23;;;3.45;;
21675;SDS011;10999;51.332;9.458;2022-11-15T16:15:25;8.23;;;3.90;;
21675;SDS011;10999;51.332;9.458;2022-11-15T16:17:59;10.90;;;3.83;;
21675;SDS011;10999;51.332;9.458;2022-11-15T16:20:37;9.55;;;3.67;;
21675;SDS011;10999;51.332;9.458;2022-11-15T16:23:06;7.70;;;3.22;;
21675;SDS011;10999;51.332;9.458;2022-11-15T16:25:42;8.25;;;2.88;;
21675;SDS011;10999;51.332;9.458;2022-11-15T16:31:09;7.20;;;2.78;;
21675;SDS011;10999;51.332;9.458;2022-11-15T16:33:37;7.97;;;2.88;;
21675;SDS011;10999;51.332;9.458;2022-11-15T16:36:05;7.18;;;2.83;;
21675;SDS011;10999;51.332;9.458;2022-11-15T16:38:38;8.75;;;2.78;;
21675;SDS011;10999;51.332;9.458;2022-11-15T16:41:05;7.05;;;2.83;;
21675;SDS011;10999;51.332;9.458;2022-11-15T16:43:31;6.15;;;2.20;;
21675;SDS011;10999;51.332;9.458;2022-11-15T16:45:58;7.68;;;2.40;;
21675;SDS011;10999;51.332;9.458;2022-11-15T16:48:38;6.25;;;2.30;;
21675;SDS011;10999;51.332;9.458;2022-11-15T16:51:05;6.55;;;2.15;;
21675;SDS011;10999;51.332;9.458;2022-11-15T16:53:33;5.53;;;2.17;;
21675;SDS011;10999;51.332;9.458;2022-11-15T16:56:00;6.00;;;1.95;;
21675;SDS011;10999;51.332;9.458;2022-11-15T16:58:26;5.82;;;2.08;;
21675;SDS011;10999;51.332;9.458;2022-11-15T17:00:54;5.72;;;2.50;;
21675;SDS011;10999;51.332;9.458;2022-11-15T17:03:22;5.18;;;2.00;;
21675;SDS011;10999;51.332;9.458;2022-11-15T17:05:50;5.18;;;1.77;;
21675;SDS011;10999;51.332;9.458;2022-11-15T17:08:20;5.30;;;2.20;;
21675;SDS011;10999;51.332;9.458;2022-11-15T17:10:47;5.07;;;2.05;;
21675;SDS011;10999;51.332;9.458;2022-11-15T17:13:14;6.95;;;2.55;;
21675;SDS011;10999;51.332;9.458;2022-11-15T17:15:41;7.18;;;2.60;;
21675;SDS011;10999;51.332;9.458;2022-11-15T17:18:11;7.18;;;2.50;;
21675;SDS011;10999;51.332;9.458;2022-11-15T17:20:40;6.35;;;2.13;;
21675;SDS011;10999;51.332;9.458;2022-11-15T17:23:16;7.05;;;2.25;;
21675;SDS011;10999;51.332;9.458;2022-11-15T17:25:43;5.30;;;2.30;;
21675;SDS011;10999;51.332;9.458;2022-11-15T17:28:10;9.10;;;2.40;;
21675;SDS011;10999;51.332;9.458;2022-11-15T17:30:39;7.35;;;2.85;;
21675;SDS011;10999;51.332;9.458;2022-11-15T17:33:07;5.88;;;2.10;;
21675;SDS011;10999;51.332;9.458;2022-11-15T17:35:33;6.25;;;2.20;;
21675;SDS011;10999;51.332;9.458;2022-11-15T17:38:00;6.60;;;2.30;;
21675;SDS011;10999;51.332;9.458;2022-11-15T17:40:26;7.57;;;2.30;;
21675;SDS011;10999;51.332;9.458;2022-11-15T17:42:53;4.00;;;1.90;;